Capitol Logistics 3272


KMIA
Miami International Airport
Miami, Florida, US
KTLH
Tallahassee International Airport
Tallahassee, Florida, US

Activity Log

Date Flight Route Aircraft Duration
06/08/2019 CPX672 WINCO2 WINCO CHRRI SMELZ PATOY JAWJA SF34 1h 38m

Route Details

Aircraft Information
Primary: Saab 340AF
Backup: Not Available
Route Data
Distance: 350nm
Sched. Duration: 2h 00m
Avg. Duration: 1h 38m (-61m)
Times Flown: 1
Recm'd Route: WINCO2 WINCO CHRRI SMELZ PATOY JAWJA
Planned Altitude: 16,000ft
Origin Wx: KMIA 271153Z 33010G19KT 10SM SCT016 BKN028 OVC150 18/13 A3005 RMK AO2 SLP177 70026 T01830128 10211 20183 53020 $
Dest. Wx: KTLH 271153Z 31006KT 10SM FEW035 04/M01 A3020 RMK AO2 SLP226 70052 T00441006 10089 20044 53019
Notes:

Financial History
Total Freight: 5,950lbs
Average Load: 5,950lbs/flt
Fuel Used: 1,627lbs
Avg. Fuel Used: 1,627lbs/flt
Fuel Expense: $2,001
Avg. Fuel Expense: $2,001
Avg. Fuel Cost: $1.23/lbs
Total Gross Income: $6,664
Pilot Pay: $149
Total Expenses: $772
Total Revenue: $3,513
Average Revenue: $6,664.00